Time;durP1;ratioP1;P1;durP2;ratioP2;P2;SDS_P1;SDS_P2;PMS_P1;PMS_P2;Temp;Humidity;BMP_temperature;BMP_pressure;BME280_temperature;BME280_humidity;BME280_pressure;Samples;Min_cycle;Max_cycle;Signal;HPM_P1;HPM_P2
2022/04/11 00:01:04;;;;;;;1.40;1.10;;;;;;;4.73;55.53;101781.66;4982359;28;99470;-83
2022/04/11 00:03:29;;;;;;;2.20;0.93;;;;;;;4.75;55.58;101776.56;4982935;28;96809;-82
2022/04/11 00:05:55;;;;;;;2.10;1.03;;;;;;;4.72;55.53;101786.34;4980685;28;98051;-83
2022/04/11 00:08:21;;;;;;;1.40;1.27;;;;;;;4.69;55.76;101778.25;4985657;28;100045;-82
2022/04/11 00:10:48;;;;;;;1.40;1.20;;;;;;;4.69;55.51;101776.31;4982298;28;97715;-83
2022/04/11 00:13:13;;;;;;;0.83;0.83;;;;;;;4.67;55.35;101775.97;4984714;28;96684;-82
2022/04/11 00:15:40;;;;;;;0.63;0.63;;;;;;;4.63;55.44;101777.25;4985599;28;97196;-82
2022/04/11 00:18:06;;;;;;;1.10;1.00;;;;;;;4.60;55.42;101767.94;4980315;28;99012;-82
2022/04/11 00:20:32;;;;;;;0.80;0.80;;;;;;;4.58;55.52;101773.06;4979081;28;97324;-82
2022/04/11 00:22:57;;;;;;;1.43;1.20;;;;;;;4.53;55.83;101812.47;4986785;28;96859;-83
2022/04/11 00:25:23;;;;;;;0.90;0.90;;;;;;;4.50;55.40;101777.09;4982914;28;96830;-82
2022/04/11 00:27:49;;;;;;;1.37;1.13;;;;;;;4.48;55.69;101793.88;4980469;28;100076;-82
2022/04/11 00:30:14;;;;;;;1.20;1.03;;;;;;;4.46;55.36;101779.91;4993689;28;97713;-82
2022/04/11 00:32:41;;;;;;;1.07;1.07;;;;;;;4.43;55.58;101769.84;4996743;28;96654;-82
2022/04/11 00:35:08;;;;;;;1.23;1.10;;;;;;;4.40;55.78;101770.72;5000717;28;97106;-83
2022/04/11 00:37:34;;;;;;;1.30;0.90;;;;;;;4.33;55.63;101770.88;4996549;28;96969;-82
2022/04/11 00:39:59;;;;;;;0.80;0.70;;;;;;;4.30;55.71;101777.13;4976045;28;99530;-82
2022/04/11 00:42:27;;;;;;;1.40;1.30;;;;;;;4.29;56.01;101783.03;5000613;28;96649;-83
2022/04/11 00:44:53;;;;;;;1.73;0.93;;;;;;;4.29;56.11;101783.78;4999590;28;96870;-82
2022/04/11 00:47:19;;;;;;;1.83;0.90;;;;;;;4.25;55.88;101776.88;4986954;28;96706;-82
2022/04/11 00:49:44;;;;;;;1.40;0.87;;;;;;;4.27;56.06;101769.84;4976089;28;98133;-83
2022/04/11 00:52:11;;;;;;;2.20;1.20;;;;;;;4.27;55.77;101788.91;4984762;28;97120;-83
2022/04/11 00:54:38;;;;;;;0.63;0.60;;;;;;;4.28;55.93;101779.53;4987950;28;96730;-82
2022/04/11 00:57:04;;;;;;;2.67;0.90;;;;;;;4.27;55.94;101783.44;4985367;28;99052;-82
2022/04/11 00:59:30;;;;;;;1.27;1.00;;;;;;;4.28;56.12;101776.06;4983011;28;99416;-83
2022/04/11 01:01:55;;;;;;;1.40;0.77;;;;;;;4.30;56.08;101773.66;4978353;28;96898;-82
2022/04/11 01:04:24;;;;;;;0.70;0.67;;;;;;;4.30;56.08;101779.13;4985348;28;96944;-82
2022/04/11 01:06:50;;;;;;;0.77;0.77;;;;;;;4.32;56.09;101782.97;4976426;28;98618;-82
2022/04/11 01:09:16;;;;;;;1.13;0.80;;;;;;;4.32;56.24;101782.97;4984125;28;97184;-82
2022/04/11 01:11:42;;;;;;;3.10;0.97;;;;;;;4.36;55.95;101774.69;4982052;28;97222;-82
2022/04/11 01:14:07;;;;;;;1.43;1.33;;;;;;;4.33;56.42;101776.31;4982314;28;97028;-82
2022/04/11 01:16:32;;;;;;;2.80;0.60;;;;;;;4.35;56.21;101773.94;4985983;28;97900;-82
2022/04/11 01:18:58;;;;;;;1.67;1.10;;;;;;;4.36;56.19;101770.03;4987036;28;98534;-82
2022/04/11 01:21:31;;;;;;;1.27;0.90;;;;;;;4.36;56.46;101780.94;4988753;28;96825;-82
2022/04/11 01:23:57;;;;;;;1.43;0.87;;;;;;;4.36;56.21;101771.97;4989360;28;96786;-82
2022/04/11 01:26:23;;;;;;;1.13;0.97;;;;;;;4.36;56.46;101775.47;4982979;28;96884;-82
2022/04/11 01:28:48;;;;;;;1.30;1.20;;;;;;;4.39;56.36;101771.88;4988684;28;99227;-82
2022/04/11 01:31:16;;;;;;;1.17;0.97;;;;;;;4.39;56.39;101774.63;4985746;28;97153;-82
2022/04/11 01:33:41;;;;;;;1.40;1.30;;;;;;;4.41;56.28;101776.94;4987954;28;96903;-82
2022/04/11 01:36:07;;;;;;;0.90;0.90;;;;;;;4.42;56.41;101773.78;4988227;28;99345;-82
2022/04/11 01:38:32;;;;;;;1.67;0.90;;;;;;;4.47;56.39;101778.75;4988320;28;97135;-82
2022/04/11 01:40:58;;;;;;;1.43;1.10;;;;;;;4.50;56.28;101774.38;4989930;28;96740;-82
2022/04/11 01:43:24;;;;;;;4.37;1.47;;;;;;;4.48;56.45;101771.31;4988346;28;97318;-82
2022/04/11 01:45:51;;;;;;;1.10;0.90;;;;;;;4.50;56.29;101783.31;4985389;28;96704;-83
2022/04/11 01:48:16;;;;;;;1.90;1.00;;;;;;;4.54;56.48;101764.94;4986107;28;96949;-82
2022/04/11 01:50:42;;;;;;;1.80;1.07;;;;;;;4.55;56.56;101785.56;4981729;28;96821;-83
2022/04/11 01:53:15;;;;;;;0.97;0.97;;;;;;;4.56;56.53;101767.25;4988434;28;96785;-82
2022/04/11 01:55:41;;;;;;;0.90;0.77;;;;;;;4.60;56.57;101769.91;4986576;28;101073;-82
2022/04/11 01:58:08;;;;;;;1.33;1.23;;;;;;;4.63;56.68;101775.25;4988365;28;99492;-82
2022/04/11 02:00:35;;;;;;;3.90;1.17;;;;;;;4.63;56.77;101758.16;4988343;28;96806;-83
2022/04/11 02:03:02;;;;;;;2.00;1.23;;;;;;;4.64;56.79;101755.00;4987321;28;97124;-82
2022/04/11 02:05:28;;;;;;;1.13;1.03;;;;;;;4.67;56.83;101761.56;4984095;28;98330;-82
2022/04/11 02:07:54;;;;;;;1.00;0.90;;;;;;;4.72;56.73;101756.38;4988318;28;98198;-82
2022/04/11 02:10:20;;;;;;;0.97;0.87;;;;;;;4.74;56.95;101759.44;4988470;28;96798;-82
2022/04/11 02:12:47;;;;;;;3.80;1.40;;;;;;;4.77;56.69;101753.13;4984649;28;97101;-82
2022/04/11 02:15:14;;;;;;;1.37;0.73;;;;;;;4.74;56.71;101753.97;4984083;28;99354;-82
2022/04/11 02:17:39;;;;;;;1.00;1.00;;;;;;;4.77;56.75;101755.09;4985397;28;97432;-82
2022/04/11 02:20:06;;;;;;;1.30;1.00;;;;;;;4.76;56.90;101753.56;4988846;28;97062;-82
2022/04/11 02:22:44;;;;;;;1.53;1.10;;;;;;;4.78;57.40;101756.63;4961899;28;97050;-82
2022/04/11 02:25:10;;;;;;;1.30;0.70;;;;;;;4.76;56.93;101761.75;4989434;28;101169;-82
2022/04/11 02:27:36;;;;;;;0.90;0.90;;;;;;;4.77;57.05;101752.38;4980478;28;102444;-82
2022/04/11 02:30:02;;;;;;;1.10;1.00;;;;;;;4.71;57.06;101754.84;4985912;28;96845;-82
2022/04/11 02:32:27;;;;;;;1.03;0.93;;;;;;;4.78;57.01;101754.69;4983838;28;97170;-82
2022/04/11 02:34:53;;;;;;;0.80;0.73;;;;;;;4.82;57.01;101738.22;4986569;28;97409;-83
2022/04/11 02:37:18;;;;;;;1.43;1.00;;;;;;;4.81;57.10;101759.28;4988739;28;97325;-82
2022/04/11 02:39:43;;;;;;;1.07;1.07;;;;;;;4.84;57.21;101744.81;4997366;28;96776;-82
2022/04/11 02:42:09;;;;;;;1.37;1.23;;;;;;;4.81;57.12;101753.03;4996860;28;97226;-82
2022/04/11 02:44:34;;;;;;;1.03;1.03;;;;;;;4.78;57.25;101748.47;4980170;28;98377;-83
2022/04/11 02:46:59;;;;;;;1.00;0.90;;;;;;;4.79;57.21;101730.91;4988885;28;100193;-84
2022/04/11 02:49:25;;;;;;;0.93;0.93;;;;;;;4.83;57.46;101745.19;4988699;28;97116;-82
2022/04/11 02:51:50;;;;;;;2.80;0.90;;;;;;;4.85;57.44;101735.41;4984142;28;96858;-82
2022/04/11 02:54:15;;;;;;;2.07;1.23;;;;;;;4.84;57.26;101733.13;4987101;28;96978;-83
2022/04/11 02:56:41;;;;;;;1.20;1.10;;;;;;;4.84;57.25;101731.16;4977972;28;97548;-82
2022/04/11 02:59:06;;;;;;;1.03;0.90;;;;;;;4.86;57.48;101731.50;4984846;28;96678;-82
2022/04/11 03:01:32;;;;;;;1.43;1.33;;;;;;;4.83;57.10;101739.75;4985757;28;97257;-82
2022/04/11 03:03:57;;;;;;;1.77;1.43;;;;;;;4.83;57.51;101739.75;4984662;28;97411;-82
2022/04/11 03:06:22;;;;;;;1.13;1.13;;;;;;;4.76;57.51;101748.88;4979974;28;99655;-82
2022/04/11 03:08:48;;;;;;;1.43;1.33;;;;;;;4.75;57.70;101746.56;4985460;28;97275;-83
2022/04/11 03:11:13;;;;;;;1.40;1.30;;;;;;;4.78;57.82;101727.44;4987972;28;97078;-82
2022/04/11 03:13:38;;;;;;;5.00;1.50;;;;;;;4.85;57.58;101737.41;4985249;28;98674;-82
2022/04/11 03:16:04;;;;;;;1.13;1.13;;;;;;;4.80;57.76;101737.91;4986692;28;99386;-82
2022/04/11 03:18:29;;;;;;;1.70;1.57;;;;;;;4.84;57.84;101742.06;4983161;28;97120;-83
2022/04/11 03:20:55;;;;;;;2.00;1.83;;;;;;;4.84;57.68;101735.84;4986270;28;96719;-83
2022/04/11 03:23:20;;;;;;;1.77;1.60;;;;;;;4.87;57.74;101732.28;4982895;28;98648;-82
2022/04/11 03:25:46;;;;;;;2.73;1.90;;;;;;;4.90;57.71;101734.13;4984652;28;97665;-82
2022/04/11 03:28:11;;;;;;;1.50;1.40;;;;;;;4.92;57.52;101731.75;4984252;28;97081;-82
2022/04/11 03:30:37;;;;;;;1.10;1.10;;;;;;;4.94;57.70;101751.16;4986300;28;97760;-82
2022/04/11 03:33:02;;;;;;;1.37;1.27;;;;;;;4.94;57.67;101732.09;4986322;28;102189;-82
2022/04/11 03:35:27;;;;;;;1.23;1.17;;;;;;;4.96;57.65;101733.19;4980252;28;99106;-82
2022/04/11 03:37:53;;;;;;;1.77;1.63;;;;;;;4.97;57.85;101748.38;4986904;28;99000;-81
2022/04/11 03:40:18;;;;;;;1.53;1.23;;;;;;;4.95;57.83;101739.09;4974457;28;96921;-82
2022/04/11 03:42:44;;;;;;;1.10;1.10;;;;;;;4.99;57.68;101742.47;4980822;28;98958;-81
2022/04/11 03:45:11;;;;;;;1.40;1.30;;;;;;;4.90;57.96;101743.09;4980973;28;97630;-81
2022/04/11 03:47:37;;;;;;;1.00;1.00;;;;;;;4.88;57.82;101731.84;4985665;28;96905;-82
2022/04/11 03:50:03;;;;;;;1.47;1.37;;;;;;;4.83;57.98;101729.63;4985468;28;98357;-82
2022/04/11 03:52:29;;;;;;;1.40;1.10;;;;;;;4.87;57.98;101749.38;4978239;28;97911;-82
2022/04/11 03:54:54;;;;;;;3.17;1.40;;;;;;;4.91;57.98;101749.31;4986168;28;100157;-82
2022/04/11 03:57:19;;;;;;;2.83;1.13;;;;;;;4.91;57.91;101757.50;4981480;28;97066;-82
2022/04/11 03:59:45;;;;;;;1.50;1.13;;;;;;;4.91;57.81;101750.09;4984670;28;96828;-82
2022/04/11 04:02:10;;;;;;;1.23;1.13;;;;;;;4.83;57.99;101735.06;4981582;28;98291;-82
2022/04/11 04:04:36;;;;;;;2.67;1.40;;;;;;;4.79;58.20;101753.47;4986189;28;96873;-82
2022/04/11 04:07:02;;;;;;;1.70;1.27;;;;;;;4.81;58.01;101739.41;4985997;28;96699;-81
2022/04/11 04:09:27;;;;;;;2.13;1.70;;;;;;;4.83;58.10;101747.94;4984376;28;97278;-81
2022/04/11 04:11:53;;;;;;;1.43;1.33;;;;;;;4.77;57.89;101758.59;4979712;28;98509;-82
2022/04/11 04:14:18;;;;;;;1.53;1.43;;;;;;;4.77;58.15;101747.69;4976872;28;96985;-82
2022/04/11 04:16:44;;;;;;;1.37;1.27;;;;;;;4.78;58.04;101746.50;4979609;28;97040;-82
2022/04/11 04:19:13;;;;;;;1.33;1.17;;;;;;;4.81;58.26;101751.09;4983985;28;97077;-82
2022/04/11 04:21:38;;;;;;;4.67;1.73;;;;;;;4.80;58.07;101738.66;4983338;28;97537;-82
2022/04/11 04:24:04;;;;;;;9.50;3.13;;;;;;;4.77;58.20;101738.72;4980643;28;99492;-82
2022/04/11 04:26:29;;;;;;;2.90;2.70;;;;;;;4.76;58.24;101748.13;4983522;28;98633;-82
2022/04/11 04:28:55;;;;;;;4.97;3.50;;;;;;;4.77;58.06;101750.41;4984822;28;97095;-82
2022/04/11 04:31:20;;;;;;;2.70;2.33;;;;;;;4.79;58.30;101739.06;4982826;28;97897;-82
2022/04/11 04:33:45;;;;;;;2.87;2.30;;;;;;;4.73;58.00;101757.13;4984332;28;99757;-82
2022/04/11 04:36:11;;;;;;;2.10;2.00;;;;;;;4.66;58.40;101755.34;4984394;28;96966;-82
2022/04/11 04:38:36;;;;;;;1.67;1.57;;;;;;;4.65;58.41;101739.41;4984173;28;96903;-83
2022/04/11 04:41:02;;;;;;;1.03;1.00;;;;;;;4.74;58.21;101753.97;4984079;28;99517;-82
2022/04/11 04:43:27;;;;;;;3.13;1.97;;;;;;;4.69;58.22;101749.06;4981326;28;97194;-82
2022/04/11 04:45:54;;;;;;;6.10;1.70;;;;;;;4.65;58.28;101753.81;4979935;28;97030;-83
2022/04/11 04:48:20;;;;;;;1.50;1.37;;;;;;;4.67;58.53;101745.22;4974276;28;97110;-82
2022/04/11 04:50:47;;;;;;;1.27;1.17;;;;;;;4.70;58.40;101745.13;4983719;28;99835;-82
2022/04/11 04:53:13;;;;;;;2.30;1.30;;;;;;;4.67;58.45;101737.03;4971830;28;100632;-84
2022/04/11 04:55:43;;;;;;;1.73;1.30;;;;;;;4.70;58.45;101744.34;4974024;28;96688;-83
2022/04/11 04:58:09;;;;;;;1.00;1.00;;;;;;;4.69;58.35;101749.06;4980319;28;96817;-82
2022/04/11 05:00:35;;;;;;;4.17;1.40;;;;;;;4.69;58.42;101751.00;4983144;28;96897;-81
2022/04/11 05:03:00;;;;;;;1.20;1.10;;;;;;;4.72;58.48;101767.25;4984422;28;97186;-81
2022/04/11 05:05:26;;;;;;;1.50;1.37;;;;;;;4.68;58.56;101757.63;4987161;28;96619;-82
2022/04/11 05:07:51;;;;;;;1.07;1.07;;;;;;;4.63;58.31;101739.81;4984217;28;97191;-82
2022/04/11 05:10:16;;;;;;;3.90;1.17;;;;;;;4.65;58.70;101742.91;4986388;28;99922;-81
2022/04/11 05:12:43;;;;;;;0.70;0.70;;;;;;;4.69;58.83;101742.81;4988588;28;97190;-82
2022/04/11 05:15:10;;;;;;;2.63;2.43;;;;;;;4.72;58.59;101742.72;4990510;28;96749;-82
2022/04/11 05:17:35;;;;;;;1.17;1.07;;;;;;;4.74;58.53;101732.16;4988467;28;97046;-81
2022/04/11 05:20:02;;;;;;;1.13;1.00;;;;;;;4.68;58.55;101741.28;4982080;28;97949;-82
2022/04/11 05:22:28;;;;;;;1.30;1.20;;;;;;;4.67;58.78;101742.47;4987676;28;97791;-82
2022/04/11 05:24:53;;;;;;;0.80;0.80;;;;;;;4.70;58.71;101734.22;4986372;28;96955;-82
2022/04/11 05:27:18;;;;;;;2.20;1.50;;;;;;;4.76;58.92;101753.56;4987384;28;96819;-84
2022/04/11 05:29:44;;;;;;;1.67;1.00;;;;;;;4.83;58.75;101743.25;4988635;28;96713;-82
2022/04/11 05:32:09;;;;;;;1.40;1.10;;;;;;;4.82;58.75;101743.69;4986236;28;97465;-82
2022/04/11 05:34:34;;;;;;;1.00;1.00;;;;;;;4.77;58.75;101744.97;4988609;28;96867;-81
2022/04/11 05:37:00;;;;;;;0.93;0.93;;;;;;;4.78;58.66;101762.09;4988616;28;96576;-82
2022/04/11 05:39:25;;;;;;;0.97;0.97;;;;;;;4.88;58.57;101750.94;4985158;28;99324;-81
2022/04/11 05:41:50;;;;;;;1.27;1.17;;;;;;;4.95;58.81;101750.75;4988399;28;97067;-81
2022/04/11 05:44:16;;;;;;;1.60;1.30;;;;;;;4.96;58.60;101755.00;4984982;28;97238;-82
2022/04/11 05:46:41;;;;;;;3.27;1.17;;;;;;;5.02;58.55;101749.81;4986803;28;96837;-81
2022/04/11 05:49:07;;;;;;;1.80;1.20;;;;;;;5.06;58.60;101750.50;4986066;28;96751;-81
2022/04/11 05:51:32;;;;;;;1.10;1.00;;;;;;;5.02;58.49;101755.28;4984585;28;99271;-82
2022/04/11 05:53:57;;;;;;;1.40;1.30;;;;;;;5.02;58.47;101756.03;4987882;28;97170;-81
2022/04/11 05:56:23;;;;;;;2.37;1.30;;;;;;;5.04;59.03;101752.88;4986732;28;97248;-81
2022/04/11 05:58:48;;;;;;;3.40;0.90;;;;;;;5.14;58.83;101751.84;4985372;28;98992;-83
2022/04/11 06:01:14;;;;;;;0.80;0.80;;;;;;;5.22;58.68;101781.25;4989917;28;97440;-81
2022/04/11 06:03:39;;;;;;;2.33;1.53;;;;;;;5.33;58.53;101753.69;4988060;28;96969;-82
2022/04/11 06:06:05;;;;;;;1.57;1.47;;;;;;;5.40;58.45;101772.63;4985718;28;97053;-82
2022/04/11 06:08:31;;;;;;;2.27;1.10;;;;;;;5.41;58.59;101760.53;4986897;28;99925;-82
2022/04/11 06:10:57;;;;;;;1.23;1.13;;;;;;;5.52;58.54;101763.75;4979370;28;97260;-82
2022/04/11 06:13:22;;;;;;;1.47;1.37;;;;;;;5.62;58.41;101764.63;4986488;28;97172;-81
2022/04/11 06:15:47;;;;;;;4.07;1.30;;;;;;;5.74;58.29;101770.16;4980476;28;97460;-81
2022/04/11 06:18:12;;;;;;;1.50;1.40;;;;;;;5.83;58.33;101759.38;4982864;28;99923;-81
2022/04/11 06:20:38;;;;;;;1.40;1.30;;;;;;;5.86;58.21;101755.81;4983700;28;97771;-81
2022/04/11 06:23:03;;;;;;;1.17;1.17;;;;;;;6.00;58.28;101773.78;4988348;28;96901;-81
2022/04/11 06:25:29;;;;;;;1.30;1.30;;;;;;;6.10;58.38;101766.44;4990180;28;96941;-82
2022/04/11 06:27:54;;;;;;;2.40;1.20;;;;;;;6.16;58.14;101783.88;4982620;28;97495;-82
2022/04/11 06:30:20;;;;;;;1.50;1.40;;;;;;;6.22;58.47;101768.47;4986378;28;98464;-80
2022/04/11 06:32:45;;;;;;;1.07;0.97;;;;;;;6.33;58.26;101769.69;4990577;28;96763;-81
2022/04/11 06:35:11;;;;;;;2.33;1.50;;;;;;;6.44;58.31;101780.31;4988028;28;97223;-81
2022/04/11 06:37:36;;;;;;;1.90;1.40;;;;;;;6.50;58.57;101779.31;4986218;28;97121;-81
2022/04/11 06:40:02;;;;;;;2.40;1.80;;;;;;;6.61;58.62;101789.94;4988043;28;97652;-81
2022/04/11 06:42:28;;;;;;;1.27;1.17;;;;;;;6.69;58.22;101781.06;4985270;28;96941;-81
2022/04/11 06:44:54;;;;;;;1.20;1.10;;;;;;;6.79;58.06;101773.75;4979277;28;97014;-82
2022/04/11 06:47:21;;;;;;;3.17;2.50;;;;;;;6.88;58.24;101779.31;4983115;28;96967;-83
2022/04/11 06:49:47;;;;;;;2.20;2.00;;;;;;;7.00;57.94;101785.97;4981533;28;97327;-82
2022/04/11 06:52:13;;;;;;;2.17;1.93;;;;;;;7.06;58.16;101776.78;4986156;28;97189;-83
2022/04/11 06:54:38;;;;;;;1.80;1.70;;;;;;;7.12;58.17;101763.31;4986982;28;96868;-82
2022/04/11 06:57:04;;;;;;;1.73;1.63;;;;;;;7.20;58.10;101781.78;4979265;28;100637;-82
2022/04/11 06:59:29;;;;;;;2.20;1.77;;;;;;;7.33;58.22;101785.25;4983999;28;98384;-80
2022/04/11 07:01:55;;;;;;;1.53;1.20;;;;;;;7.46;58.34;101766.06;4980292;28;96715;-82
2022/04/11 07:04:21;;;;;;;2.10;1.67;;;;;;;7.54;58.16;101776.31;4983649;28;96920;-83
2022/04/11 07:06:47;;;;;;;1.80;1.70;;;;;;;7.60;58.20;101786.72;4984676;28;96734;-82
2022/04/11 07:09:14;;;;;;;1.57;1.47;;;;;;;7.72;58.14;101783.94;4984008;28;97165;-82
2022/04/11 07:11:39;;;;;;;1.80;1.70;;;;;;;7.82;58.23;101760.84;4987660;28;97221;-83
2022/04/11 07:14:05;;;;;;;1.93;1.80;;;;;;;7.87;58.02;101759.53;4983418;28;96868;-82
2022/04/11 07:16:31;;;;;;;3.03;2.27;;;;;;;7.98;57.95;101774.38;4981264;28;97328;-82
2022/04/11 07:18:56;;;;;;;6.50;1.80;;;;;;;8.16;57.93;101762.75;4988745;28;97904;-84
2022/04/11 07:21:22;;;;;;;2.23;2.03;;;;;;;8.27;57.61;101782.34;4981609;28;97296;-82
2022/04/11 07:23:47;;;;;;;5.37;1.73;;;;;;;8.44;57.60;101772.69;4980099;28;97437;-82
2022/04/11 07:26:12;;;;;;;2.57;1.53;;;;;;;8.59;57.23;101765.44;4980415;28;98007;-82
2022/04/11 07:28:38;;;;;;;3.33;1.80;;;;;;;8.76;57.00;101772.22;4982034;28;97014;-82
2022/04/11 07:31:03;;;;;;;2.07;1.90;;;;;;;8.94;56.96;101766.00;4985688;28;96800;-80
2022/04/11 07:33:29;;;;;;;2.53;1.70;;;;;;;9.12;56.79;101771.56;4980722;28;97022;-81
2022/04/11 07:35:54;;;;;;;1.83;1.53;;;;;;;9.20;56.40;101766.50;4986181;28;98193;-81
2022/04/11 07:38:19;;;;;;;6.53;1.47;;;;;;;9.25;56.24;101763.19;4986835;28;100594;-81
2022/04/11 07:40:46;;;;;;;1.60;1.50;;;;;;;9.30;56.05;101768.84;4980364;28;96563;-83
2022/04/11 07:43:11;;;;;;;4.63;1.60;;;;;;;9.34;55.89;101777.69;4987541;28;97105;-82
2022/04/11 07:45:37;;;;;;;1.87;1.43;;;;;;;9.44;55.90;101767.47;4985788;28;100131;-80
2022/04/11 07:48:02;;;;;;;3.27;1.80;;;;;;;9.54;55.96;101771.75;4982166;28;96970;-81
2022/04/11 07:50:28;;;;;;;2.10;1.90;;;;;;;9.61;55.70;101768.72;4984627;28;96972;-81
2022/04/11 07:52:53;;;;;;;3.07;2.07;;;;;;;9.66;55.58;101766.09;4982658;28;97964;-80
2022/04/11 07:55:19;;;;;;;2.03;1.43;;;;;;;9.80;55.59;101770.22;4985187;28;98254;-80
2022/04/11 07:57:44;;;;;;;2.53;2.33;;;;;;;9.90;55.38;101768.97;4983332;28;98298;-80
2022/04/11 08:00:10;;;;;;;2.00;1.90;;;;;;;10.06;55.45;101773.38;4982296;28;97283;-80
2022/04/11 08:02:37;;;;;;;1.70;1.60;;;;;;;10.20;55.21;101775.53;4984977;28;97038;-81
2022/04/11 08:05:07;;;;;;;1.50;1.40;;;;;;;10.36;55.09;101773.19;4982312;28;100081;-81
2022/04/11 08:07:34;;;;;;;2.70;1.70;;;;;;;10.47;54.98;101770.72;4979070;28;101339;-81
2022/04/11 08:10:01;;;;;;;1.50;1.40;;;;;;;10.56;54.61;101775.41;4985559;28;96826;-80
2022/04/11 08:12:26;;;;;;;1.90;1.80;;;;;;;10.67;54.53;101785.91;4986087;28;97171;-81
2022/04/11 08:14:52;;;;;;;1.47;1.37;;;;;;;10.73;54.33;101809.59;4985366;28;96850;-81
2022/04/11 08:17:17;;;;;;;4.80;1.87;;;;;;;10.81;54.20;101786.00;4985731;28;97020;-82
2022/04/11 08:19:43;;;;;;;1.87;1.77;;;;;;;10.92;54.11;101780.00;4980909;28;96848;-82
2022/04/11 08:22:08;;;;;;;1.87;1.47;;;;;;;11.04;53.94;101781.75;4984871;28;97270;-81
2022/04/11 08:24:33;;;;;;;1.83;1.73;;;;;;;11.15;53.70;101768.22;4984968;28;99691;-82
2022/04/11 08:26:59;;;;;;;1.10;1.00;;;;;;;11.24;53.62;101768.94;4969539;28;97661;-82
2022/04/11 08:29:25;;;;;;;1.30;1.30;;;;;;;11.42;53.55;101770.81;4988030;28;97036;-82
2022/04/11 08:31:51;;;;;;;1.57;1.23;;;;;;;11.53;53.11;101779.28;4989396;28;97402;-82
2022/04/11 08:34:16;;;;;;;1.40;1.30;;;;;;;11.74;52.95;101775.47;4990484;28;98862;-81
2022/04/11 08:36:43;;;;;;;2.60;1.20;;;;;;;11.95;52.53;101771.59;4986363;28;97602;-81
2022/04/11 08:39:09;;;;;;;1.27;1.20;;;;;;;12.12;52.23;101773.91;4987883;28;96747;-81
2022/04/11 08:41:36;;;;;;;1.47;1.30;;;;;;;12.22;52.00;101773.31;4984858;28;97310;-81
2022/04/11 08:44:07;;;;;;;1.60;1.50;;;;;;;12.41;51.74;101773.88;4986622;28;96970;-81
2022/04/11 08:46:34;;;;;;;1.10;0.80;;;;;;;12.50;51.31;101782.03;4990436;28;96920;-81
2022/04/11 08:49:01;;;;;;;9.20;1.43;;;;;;;12.50;51.28;101776.53;4981304;28;98761;-81
2022/04/11 08:51:29;;;;;;;1.90;1.00;;;;;;;12.61;51.25;101780.22;4986255;28;96881;-81
2022/04/11 08:53:56;;;;;;;1.77;1.47;;;;;;;12.79;51.24;101776.47;4987677;28;98005;-81
2022/04/11 08:56:21;;;;;;;3.47;1.20;;;;;;;12.97;51.13;101776.25;4988186;28;99475;-81
2022/04/11 08:58:46;;;;;;;2.47;1.40;;;;;;;13.03;50.72;101785.38;4985463;28;96940;-81
2022/04/11 09:01:12;;;;;;;2.70;1.23;;;;;;;13.21;50.59;101781.63;4988369;28;96938;-81
2022/04/11 09:03:38;;;;;;;1.90;1.00;;;;;;;13.33;50.11;101784.03;4988141;28;98782;-82
2022/04/11 09:06:04;;;;;;;1.10;1.10;;;;;;;13.51;50.47;101781.00;4987389;28;99906;-82
2022/04/11 09:08:49;;;;;;;3.30;1.53;;;;;;;13.56;48.50;101781.53;4989250;28;97096;-83
2022/04/11 09:11:26;;;;;;;3.93;1.90;;;;;;;13.62;48.75;101782.34;4992724;28;97013;-82
2022/04/11 09:13:52;;;;;;;1.30;1.20;;;;;;;13.72;49.84;101773.41;4978743;28;98071;-82
2022/04/11 09:16:18;;;;;;;2.80;1.37;;;;;;;13.67;49.70;101765.84;4987897;28;98138;-82
2022/04/11 09:18:52;;;;;;;1.83;0.87;;;;;;;13.73;49.15;101768.66;4994266;28;96961;-82
2022/04/11 09:21:19;;;;;;;1.40;1.30;;;;;;;13.82;49.65;101768.50;4987411;28;97208;-83
2022/04/11 09:23:46;;;;;;;1.30;1.10;;;;;;;13.92;49.73;101769.84;4987540;28;99975;-83
2022/04/11 09:26:15;;;;;;;1.50;1.33;;;;;;;14.05;48.93;101770.22;4982326;28;98661;-83
2022/04/11 09:28:40;;;;;;;2.50;1.40;;;;;;;14.11;49.33;101763.50;4984172;28;96821;-82
2022/04/11 09:31:06;;;;;;;1.87;1.40;;;;;;;14.14;49.05;101770.06;4986192;28;96779;-80
2022/04/11 09:33:37;;;;;;;1.53;1.00;;;;;;;14.15;47.96;101752.22;4983080;28;98490;-79
2022/04/11 09:36:03;;;;;;;0.90;0.90;;;;;;;14.24;48.62;101763.13;4986555;28;96725;-79
2022/04/11 09:38:29;;;;;;;1.60;1.20;;;;;;;14.41;48.62;101758.50;4985202;28;97354;-81
2022/04/11 09:40:56;;;;;;;0.97;0.87;;;;;;;14.52;48.36;101763.34;4988717;28;96822;-80
2022/04/11 09:43:26;;;;;;;1.13;0.90;;;;;;;14.60;47.63;101748.56;4983917;28;97751;-81
2022/04/11 09:45:52;;;;;;;1.17;1.00;;;;;;;14.58;47.92;101755.84;4979468;28;100543;-80
2022/04/11 09:48:21;;;;;;;1.10;1.00;;;;;;;14.61;47.91;101733.44;4980598;28;97447;-82
2022/04/11 09:50:47;;;;;;;3.07;0.87;;;;;;;14.64;47.66;101740.78;4988540;28;97212;-81
2022/04/11 09:53:21;;;;;;;1.93;0.80;;;;;;;14.68;45.44;101744.06;4984715;28;97517;-82
2022/04/11 09:55:52;;;;;;;2.97;0.80;;;;;;;14.69;47.00;101745.59;4985192;28;99458;-81
2022/04/11 09:58:22;;;;;;;1.50;0.87;;;;;;;14.76;46.08;101741.63;4982799;28;97392;-81
2022/04/11 10:00:51;;;;;;;1.20;0.70;;;;;;;14.75;46.70;101745.63;4984118;28;96996;-83
2022/04/11 10:03:20;;;;;;;1.10;1.00;;;;;;;14.64;46.71;101756.63;4987059;28;97963;-80
2022/04/11 10:05:46;;;;;;;2.53;1.13;;;;;;;14.52;45.86;101736.44;4983061;28;100714;-81
2022/04/11 10:08:12;;;;;;;2.00;0.93;;;;;;;14.46;46.00;101734.88;4986980;28;96749;-81
2022/04/11 10:10:40;;;;;;;1.73;0.80;;;;;;;14.62;46.52;101743.28;4992744;28;96677;-81
2022/04/11 10:13:07;;;;;;;1.80;1.03;;;;;;;14.69;46.20;101742.84;4989346;28;98870;-82
2022/04/11 10:15:32;;;;;;;1.20;1.10;;;;;;;14.75;46.27;101734.53;4992664;28;97569;-82
2022/04/11 10:17:58;;;;;;;1.63;1.13;;;;;;;14.82;45.92;101737.63;4988236;28;97029;-80
2022/04/11 10:20:27;;;;;;;3.40;1.23;;;;;;;14.87;44.63;101728.56;4983840;28;96943;-80
2022/04/11 10:23:02;;;;;;;1.77;1.50;;;;;;;14.95;45.36;101717.78;4988029;28;96942;-81
2022/04/11 10:25:30;;;;;;;2.73;1.73;;;;;;;14.98;45.70;101723.06;4975232;28;96778;-82
2022/04/11 10:28:15;;;;;;;3.00;1.40;;;;;;;15.01;42.65;101724.09;4988651;28;96901;-81
2022/04/11 10:30:41;;;;;;;1.40;1.17;;;;;;;15.06;45.51;101720.59;4986041;28;96964;-82
2022/04/11 10:33:06;;;;;;;1.83;1.60;;;;;;;15.14;45.42;101726.41;4987099;28;97329;-82
2022/04/11 10:35:34;;;;;;;1.63;1.53;;;;;;;15.22;44.95;101719.94;4987773;28;98259;-82
2022/04/11 10:37:59;;;;;;;1.97;1.57;;;;;;;15.35;45.43;101711.91;4983338;28;97174;-82
2022/04/11 10:40:24;;;;;;;2.50;1.90;;;;;;;15.47;44.99;101718.25;4987892;28;96979;-81
2022/04/11 10:43:07;;;;;;;2.30;1.53;;;;;;;15.60;43.13;101710.22;4987127;28;97645;-81
2022/04/11 10:45:55;;;;;;;1.70;1.60;;;;;;;15.74;42.56;101710.00;4982925;28;100170;-81
2022/04/11 10:48:24;;;;;;;1.70;1.60;;;;;;;15.81;44.28;101711.53;4980222;28;96872;-82
2022/04/11 10:50:53;;;;;;;4.77;2.77;;;;;;;15.97;43.51;101712.78;4983209;28;97357;-82
2022/04/11 10:53:24;;;;;;;2.20;1.77;;;;;;;16.13;41.40;101707.25;4985977;28;97348;-82
2022/04/11 10:56:03;;;;;;;4.17;2.20;;;;;;;16.15;40.08;101707.50;4994307;28;98561;-80
2022/04/11 10:58:47;;;;;;;1.43;1.33;;;;;;;16.30;41.17;101707.97;4995126;28;96597;-81
2022/04/11 11:01:13;;;;;;;4.90;2.30;;;;;;;16.22;42.65;101695.88;4993656;28;96676;-81
2022/04/11 11:03:40;;;;;;;2.30;2.10;;;;;;;16.34;42.83;101707.72;4992544;28;97147;-81
2022/04/11 11:06:17;;;;;;;3.00;1.90;;;;;;;16.57;40.78;101689.78;4997103;28;98450;-81
2022/04/11 11:08:43;;;;;;;2.20;1.93;;;;;;;16.81;42.52;101692.75;4992027;28;96828;-81
2022/04/11 11:11:20;;;;;;;2.20;1.90;;;;;;;17.06;39.25;101691.63;4979190;28;96963;-82
2022/04/11 11:13:45;;;;;;;2.60;2.03;;;;;;;17.11;41.47;101696.44;4984136;28;101986;-81
2022/04/11 11:16:11;;;;;;;2.33;2.00;;;;;;;17.20;41.68;101692.59;4983334;28;99197;-82
2022/04/11 11:18:48;;;;;;;2.23;2.07;;;;;;;17.24;39.49;101684.72;4985648;28;96902;-82
2022/04/11 11:21:20;;;;;;;2.50;2.30;;;;;;;17.44;41.85;101692.72;4979428;28;96719;-81
2022/04/11 11:26:48;;;;;;;2.23;2.00;;;;;;;17.75;39.43;101683.19;4986160;28;100234;-81
2022/04/11 11:29:22;;;;;;;1.90;1.80;;;;;;;18.10;37.92;101671.25;4980183;28;96755;-82